sensor_id;sensor_type;location;lat;lon;timestamp;P1;durP1;ratioP1;P2;durP2;ratioP2
56806;SDS011;42687;42.524;12.052;2023-05-07T00:01:46;5.88;;;2.85;;
56806;SDS011;42687;42.524;12.052;2023-05-07T00:04:11;4.55;;;2.55;;
56806;SDS011;42687;42.524;12.052;2023-05-07T00:06:38;3.78;;;2.55;;
56806;SDS011;42687;42.524;12.052;2023-05-07T00:09:05;3.60;;;1.90;;
56806;SDS011;42687;42.524;12.052;2023-05-07T00:11:32;11.98;;;2.70;;
56806;SDS011;42687;42.524;12.052;2023-05-07T00:13:58;4.70;;;2.33;;
56806;SDS011;42687;42.524;12.052;2023-05-07T00:16:24;6.88;;;3.28;;
56806;SDS011;42687;42.524;12.052;2023-05-07T00:18:49;4.03;;;2.88;;
56806;SDS011;42687;42.524;12.052;2023-05-07T00:21:15;3.30;;;2.25;;
56806;SDS011;42687;42.524;12.052;2023-05-07T00:23:41;3.75;;;2.05;;
56806;SDS011;42687;42.524;12.052;2023-05-07T00:26:06;5.88;;;2.90;;
56806;SDS011;42687;42.524;12.052;2023-05-07T00:28:32;5.22;;;3.33;;
56806;SDS011;42687;42.524;12.052;2023-05-07T00:30:58;5.68;;;3.50;;
56806;SDS011;42687;42.524;12.052;2023-05-07T00:33:23;4.55;;;2.70;;
56806;SDS011;42687;42.524;12.052;2023-05-07T00:35:49;5.15;;;2.63;;
56806;SDS011;42687;42.524;12.052;2023-05-07T00:38:14;4.28;;;2.10;;
56806;SDS011;42687;42.524;12.052;2023-05-07T00:40:40;4.15;;;2.45;;
56806;SDS011;42687;42.524;12.052;2023-05-07T00:43:06;7.10;;;2.80;;
56806;SDS011;42687;42.524;12.052;2023-05-07T00:45:32;3.83;;;2.35;;
56806;SDS011;42687;42.524;12.052;2023-05-07T00:47:59;4.43;;;2.80;;
56806;SDS011;42687;42.524;12.052;2023-05-07T00:50:26;4.18;;;2.95;;
56806;SDS011;42687;42.524;12.052;2023-05-07T00:52:54;5.22;;;3.72;;
56806;SDS011;42687;42.524;12.052;2023-05-07T00:55:20;5.35;;;3.35;;
56806;SDS011;42687;42.524;12.052;2023-05-07T00:57:46;5.15;;;2.70;;
56806;SDS011;42687;42.524;12.052;2023-05-07T01:00:12;5.05;;;2.90;;
56806;SDS011;42687;42.524;12.052;2023-05-07T01:02:38;3.05;;;2.40;;
56806;SDS011;42687;42.524;12.052;2023-05-07T01:05:08;45.92;;;4.57;;
56806;SDS011;42687;42.524;12.052;2023-05-07T01:07:35;3.75;;;2.25;;
56806;SDS011;42687;42.524;12.052;2023-05-07T01:10:02;3.25;;;2.50;;
56806;SDS011;42687;42.524;12.052;2023-05-07T01:12:29;3.65;;;2.60;;
56806;SDS011;42687;42.524;12.052;2023-05-07T01:14:56;5.13;;;2.85;;
56806;SDS011;42687;42.524;12.052;2023-05-07T01:17:23;6.28;;;3.30;;
56806;SDS011;42687;42.524;12.052;2023-05-07T01:19:48;3.72;;;2.30;;
56806;SDS011;42687;42.524;12.052;2023-05-07T01:22:15;6.38;;;3.17;;
56806;SDS011;42687;42.524;12.052;2023-05-07T01:24:46;6.28;;;5.00;;
56806;SDS011;42687;42.524;12.052;2023-05-07T01:27:12;16.63;;;3.28;;
56806;SDS011;42687;42.524;12.052;2023-05-07T01:29:38;4.25;;;2.70;;
56806;SDS011;42687;42.524;12.052;2023-05-07T01:32:03;5.65;;;2.42;;
56806;SDS011;42687;42.524;12.052;2023-05-07T01:34:31;4.55;;;2.10;;
56806;SDS011;42687;42.524;12.052;2023-05-07T01:37:01;3.60;;;2.20;;
56806;SDS011;42687;42.524;12.052;2023-05-07T01:39:28;6.03;;;3.08;;
56806;SDS011;42687;42.524;12.052;2023-05-07T01:41:55;5.15;;;3.00;;
56806;SDS011;42687;42.524;12.052;2023-05-07T01:44:22;4.93;;;3.13;;
56806;SDS011;42687;42.524;12.052;2023-05-07T01:46:49;4.47;;;3.10;;
56806;SDS011;42687;42.524;12.052;2023-05-07T01:49:15;3.67;;;2.08;;
56806;SDS011;42687;42.524;12.052;2023-05-07T01:51:41;4.53;;;2.45;;
56806;SDS011;42687;42.524;12.052;2023-05-07T01:54:08;5.85;;;2.65;;
56806;SDS011;42687;42.524;12.052;2023-05-07T01:56:35;5.53;;;2.53;;
56806;SDS011;42687;42.524;12.052;2023-05-07T01:59:00;4.60;;;2.30;;
56806;SDS011;42687;42.524;12.052;2023-05-07T02:01:27;5.05;;;3.50;;
56806;SDS011;42687;42.524;12.052;2023-05-07T02:03:53;3.08;;;2.25;;
56806;SDS011;42687;42.524;12.052;2023-05-07T02:06:19;5.72;;;2.30;;
56806;SDS011;42687;42.524;12.052;2023-05-07T02:08:45;4.40;;;2.45;;
56806;SDS011;42687;42.524;12.052;2023-05-07T02:11:11;7.30;;;3.90;;
56806;SDS011;42687;42.524;12.052;2023-05-07T02:13:37;3.60;;;2.42;;
56806;SDS011;42687;42.524;12.052;2023-05-07T02:16:03;4.70;;;2.03;;
56806;SDS011;42687;42.524;12.052;2023-05-07T02:18:29;5.03;;;2.88;;
56806;SDS011;42687;42.524;12.052;2023-05-07T02:20:54;4.95;;;3.47;;
56806;SDS011;42687;42.524;12.052;2023-05-07T02:23:20;4.47;;;2.85;;
56806;SDS011;42687;42.524;12.052;2023-05-07T02:25:46;5.28;;;4.10;;
56806;SDS011;42687;42.524;12.052;2023-05-07T02:28:12;4.05;;;2.35;;
56806;SDS011;42687;42.524;12.052;2023-05-07T02:30:38;6.28;;;3.35;;
56806;SDS011;42687;42.524;12.052;2023-05-07T02:33:03;3.97;;;2.58;;
56806;SDS011;42687;42.524;12.052;2023-05-07T02:35:29;9.82;;;3.35;;
56806;SDS011;42687;42.524;12.052;2023-05-07T02:37:55;4.47;;;2.55;;
56806;SDS011;42687;42.524;12.052;2023-05-07T02:40:21;7.43;;;4.10;;
56806;SDS011;42687;42.524;12.052;2023-05-07T02:42:46;5.75;;;4.20;;
56806;SDS011;42687;42.524;12.052;2023-05-07T02:45:12;4.05;;;2.38;;
56806;SDS011;42687;42.524;12.052;2023-05-07T02:47:38;5.35;;;3.05;;
56806;SDS011;42687;42.524;12.052;2023-05-07T02:50:03;3.83;;;2.85;;
56806;SDS011;42687;42.524;12.052;2023-05-07T02:52:30;5.72;;;4.13;;
56806;SDS011;42687;42.524;12.052;2023-05-07T02:54:55;4.57;;;2.42;;
56806;SDS011;42687;42.524;12.052;2023-05-07T02:57:21;5.05;;;3.15;;
56806;SDS011;42687;42.524;12.052;2023-05-07T02:59:47;4.65;;;2.70;;
56806;SDS011;42687;42.524;12.052;2023-05-07T03:02:12;6.65;;;2.92;;
56806;SDS011;42687;42.524;12.052;2023-05-07T03:04:39;3.65;;;2.20;;
56806;SDS011;42687;42.524;12.052;2023-05-07T03:07:05;4.13;;;2.63;;
56806;SDS011;42687;42.524;12.052;2023-05-07T03:09:30;3.05;;;2.72;;
56806;SDS011;42687;42.524;12.052;2023-05-07T03:11:56;10.48;;;4.45;;
56806;SDS011;42687;42.524;12.052;2023-05-07T03:14:22;4.70;;;2.70;;
56806;SDS011;42687;42.524;12.052;2023-05-07T03:16:48;4.80;;;2.70;;
56806;SDS011;42687;42.524;12.052;2023-05-07T03:19:14;4.85;;;2.70;;
56806;SDS011;42687;42.524;12.052;2023-05-07T03:21:40;4.38;;;3.42;;
56806;SDS011;42687;42.524;12.052;2023-05-07T03:24:06;6.25;;;3.22;;
56806;SDS011;42687;42.524;12.052;2023-05-07T03:26:32;5.45;;;3.17;;
56806;SDS011;42687;42.524;12.052;2023-05-07T03:28:57;13.70;;;5.68;;
56806;SDS011;42687;42.524;12.052;2023-05-07T03:31:23;8.35;;;4.93;;
56806;SDS011;42687;42.524;12.052;2023-05-07T03:33:52;6.82;;;4.43;;
56806;SDS011;42687;42.524;12.052;2023-05-07T03:36:19;11.20;;;7.15;;
56806;SDS011;42687;42.524;12.052;2023-05-07T03:38:46;10.68;;;8.23;;
56806;SDS011;42687;42.524;12.052;2023-05-07T03:41:12;13.82;;;7.25;;
56806;SDS011;42687;42.524;12.052;2023-05-07T03:43:38;11.38;;;7.50;;
56806;SDS011;42687;42.524;12.052;2023-05-07T03:46:04;11.10;;;9.48;;
56806;SDS011;42687;42.524;12.052;2023-05-07T03:48:30;12.95;;;8.50;;
56806;SDS011;42687;42.524;12.052;2023-05-07T03:50:56;12.48;;;8.75;;
56806;SDS011;42687;42.524;12.052;2023-05-07T03:53:23;13.40;;;9.02;;
56806;SDS011;42687;42.524;12.052;2023-05-07T03:55:48;18.60;;;11.85;;
56806;SDS011;42687;42.524;12.052;2023-05-07T03:58:15;17.85;;;10.85;;
56806;SDS011;42687;42.524;12.052;2023-05-07T04:00:40;16.60;;;9.75;;
56806;SDS011;42687;42.524;12.052;2023-05-07T04:03:06;13.80;;;8.95;;
56806;SDS011;42687;42.524;12.052;2023-05-07T04:05:32;21.00;;;13.43;;
56806;SDS011;42687;42.524;12.052;2023-05-07T04:07:58;18.70;;;11.43;;
56806;SDS011;42687;42.524;12.052;2023-05-07T04:10:24;16.17;;;11.13;;
56806;SDS011;42687;42.524;12.052;2023-05-07T04:12:50;21.67;;;13.50;;
56806;SDS011;42687;42.524;12.052;2023-05-07T04:15:16;19.23;;;12.38;;
56806;SDS011;42687;42.524;12.052;2023-05-07T04:17:42;18.00;;;11.35;;
56806;SDS011;42687;42.524;12.052;2023-05-07T04:20:13;20.17;;;12.93;;
56806;SDS011;42687;42.524;12.052;2023-05-07T04:22:40;19.33;;;14.80;;
56806;SDS011;42687;42.524;12.052;2023-05-07T04:25:06;20.40;;;13.27;;
56806;SDS011;42687;42.524;12.052;2023-05-07T04:27:34;21.55;;;13.25;;
56806;SDS011;42687;42.524;12.052;2023-05-07T04:30:01;25.35;;;14.15;;
56806;SDS011;42687;42.524;12.052;2023-05-07T04:32:27;17.70;;;12.13;;
56806;SDS011;42687;42.524;12.052;2023-05-07T04:34:54;18.40;;;10.82;;
56806;SDS011;42687;42.524;12.052;2023-05-07T04:37:23;20.55;;;13.63;;
56806;SDS011;42687;42.524;12.052;2023-05-07T04:39:50;18.50;;;14.88;;
56806;SDS011;42687;42.524;12.052;2023-05-07T04:42:16;23.20;;;14.70;;
56806;SDS011;42687;42.524;12.052;2023-05-07T04:44:45;22.60;;;15.55;;
56806;SDS011;42687;42.524;12.052;2023-05-07T04:47:11;28.73;;;17.73;;
56806;SDS011;42687;42.524;12.052;2023-05-07T04:49:40;24.45;;;16.45;;
56806;SDS011;42687;42.524;12.052;2023-05-07T04:52:06;31.85;;;20.05;;
56806;SDS011;42687;42.524;12.052;2023-05-07T04:54:31;20.98;;;15.57;;
56806;SDS011;42687;42.524;12.052;2023-05-07T04:56:57;23.23;;;17.52;;
56806;SDS011;42687;42.524;12.052;2023-05-07T04:59:23;26.83;;;17.77;;
56806;SDS011;42687;42.524;12.052;2023-05-07T05:01:48;27.35;;;17.85;;
56806;SDS011;42687;42.524;12.052;2023-05-07T05:04:14;30.65;;;17.70;;
56806;SDS011;42687;42.524;12.052;2023-05-07T05:06:40;27.92;;;19.95;;
56806;SDS011;42687;42.524;12.052;2023-05-07T05:09:06;24.98;;;17.92;;
56806;SDS011;42687;42.524;12.052;2023-05-07T05:11:31;27.60;;;20.80;;
56806;SDS011;42687;42.524;12.052;2023-05-07T05:13:58;28.92;;;20.55;;
56806;SDS011;42687;42.524;12.052;2023-05-07T05:16:25;23.00;;;18.30;;
56806;SDS011;42687;42.524;12.052;2023-05-07T05:18:51;29.02;;;20.60;;
56806;SDS011;42687;42.524;12.052;2023-05-07T05:21:17;27.35;;;19.10;;
56806;SDS011;42687;42.524;12.052;2023-05-07T05:23:43;22.13;;;18.00;;
56806;SDS011;42687;42.524;12.052;2023-05-07T05:26:09;25.77;;;17.50;;
56806;SDS011;42687;42.524;12.052;2023-05-07T05:28:35;25.77;;;18.88;;
56806;SDS011;42687;42.524;12.052;2023-05-07T05:31:00;22.08;;;16.88;;
56806;SDS011;42687;42.524;12.052;2023-05-07T05:33:26;27.40;;;18.42;;
56806;SDS011;42687;42.524;12.052;2023-05-07T05:35:53;32.35;;;25.98;;
56806;SDS011;42687;42.524;12.052;2023-05-07T05:38:19;24.95;;;20.73;;
56806;SDS011;42687;42.524;12.052;2023-05-07T05:40:46;19.35;;;16.60;;
56806;SDS011;42687;42.524;12.052;2023-05-07T05:43:13;24.38;;;19.05;;
56806;SDS011;42687;42.524;12.052;2023-05-07T05:45:39;18.98;;;16.23;;
56806;SDS011;42687;42.524;12.052;2023-05-07T05:48:05;21.98;;;17.13;;
56806;SDS011;42687;42.524;12.052;2023-05-07T05:50:31;21.42;;;16.85;;
56806;SDS011;42687;42.524;12.052;2023-05-07T05:52:57;22.30;;;15.43;;
56806;SDS011;42687;42.524;12.052;2023-05-07T05:55:23;20.30;;;15.27;;
56806;SDS011;42687;42.524;12.052;2023-05-07T05:57:49;14.68;;;11.63;;
56806;SDS011;42687;42.524;12.052;2023-05-07T06:00:15;17.73;;;14.25;;
56806;SDS011;42687;42.524;12.052;2023-05-07T06:02:41;9.52;;;7.60;;
56806;SDS011;42687;42.524;12.052;2023-05-07T06:05:08;13.23;;;11.10;;
56806;SDS011;42687;42.524;12.052;2023-05-07T06:07:34;8.15;;;5.93;;
56806;SDS011;42687;42.524;12.052;2023-05-07T06:10:03;8.05;;;5.18;;
56806;SDS011;42687;42.524;12.052;2023-05-07T06:12:29;8.27;;;4.60;;
56806;SDS011;42687;42.524;12.052;2023-05-07T06:14:54;5.93;;;3.90;;
56806;SDS011;42687;42.524;12.052;2023-05-07T06:17:20;2.50;;;1.67;;
56806;SDS011;42687;42.524;12.052;2023-05-07T06:19:46;5.78;;;3.90;;
56806;SDS011;42687;42.524;12.052;2023-05-07T06:22:11;2.75;;;2.08;;
56806;SDS011;42687;42.524;12.052;2023-05-07T06:24:37;5.32;;;3.55;;
56806;SDS011;42687;42.524;12.052;2023-05-07T06:27:02;3.97;;;3.13;;
56806;SDS011;42687;42.524;12.052;2023-05-07T06:29:28;6.28;;;3.90;;
56806;SDS011;42687;42.524;12.052;2023-05-07T06:31:56;4.97;;;4.20;;
56806;SDS011;42687;42.524;12.052;2023-05-07T06:34:32;4.63;;;3.72;;
56806;SDS011;42687;42.524;12.052;2023-05-07T06:36:58;7.78;;;4.22;;
56806;SDS011;42687;42.524;12.052;2023-05-07T06:39:24;5.65;;;3.60;;
56806;SDS011;42687;42.524;12.052;2023-05-07T06:41:49;8.30;;;4.35;;
56806;SDS011;42687;42.524;12.052;2023-05-07T06:44:15;5.68;;;3.25;;
56806;SDS011;42687;42.524;12.052;2023-05-07T06:46:41;3.05;;;2.30;;
56806;SDS011;42687;42.524;12.052;2023-05-07T06:49:07;5.20;;;3.90;;
56806;SDS011;42687;42.524;12.052;2023-05-07T06:51:32;3.90;;;2.90;;
56806;SDS011;42687;42.524;12.052;2023-05-07T06:53:59;3.90;;;3.08;;
56806;SDS011;42687;42.524;12.052;2023-05-07T06:56:25;6.03;;;2.45;;
56806;SDS011;42687;42.524;12.052;2023-05-07T06:58:50;3.45;;;2.17;;
56806;SDS011;42687;42.524;12.052;2023-05-07T07:01:16;2.75;;;2.10;;
56806;SDS011;42687;42.524;12.052;2023-05-07T07:03:42;2.00;;;1.60;;
56806;SDS011;42687;42.524;12.052;2023-05-07T07:06:07;3.67;;;3.03;;
56806;SDS011;42687;42.524;12.052;2023-05-07T07:08:33;3.78;;;2.58;;
56806;SDS011;42687;42.524;12.052;2023-05-07T07:10:59;5.97;;;3.75;;
56806;SDS011;42687;42.524;12.052;2023-05-07T07:13:25;4.45;;;3.55;;
56806;SDS011;42687;42.524;12.052;2023-05-07T07:15:51;3.40;;;2.55;;
56806;SDS011;42687;42.524;12.052;2023-05-07T07:18:18;5.65;;;2.65;;
56806;SDS011;42687;42.524;12.052;2023-05-07T07:20:44;3.47;;;2.05;;
56806;SDS011;42687;42.524;12.052;2023-05-07T07:23:10;2.65;;;1.65;;
56806;SDS011;42687;42.524;12.052;2023-05-07T07:25:36;2.40;;;1.35;;
56806;SDS011;42687;42.524;12.052;2023-05-07T07:28:01;3.92;;;2.08;;
56806;SDS011;42687;42.524;12.052;2023-05-07T07:30:27;3.08;;;2.05;;
56806;SDS011;42687;42.524;12.052;2023-05-07T07:32:53;2.05;;;1.35;;
56806;SDS011;42687;42.524;12.052;2023-05-07T07:35:21;4.13;;;3.10;;
56806;SDS011;42687;42.524;12.052;2023-05-07T07:37:47;5.93;;;2.15;;
56806;SDS011;42687;42.524;12.052;2023-05-07T07:40:15;3.78;;;2.50;;
56806;SDS011;42687;42.524;12.052;2023-05-07T07:42:40;2.67;;;1.80;;
56806;SDS011;42687;42.524;12.052;2023-05-07T07:45:06;1.75;;;1.65;;
56806;SDS011;42687;42.524;12.052;2023-05-07T07:47:33;1.63;;;1.40;;
56806;SDS011;42687;42.524;12.052;2023-05-07T07:49:58;3.70;;;2.17;;
56806;SDS011;42687;42.524;12.052;2023-05-07T07:52:24;1.65;;;1.45;;
56806;SDS011;42687;42.524;12.052;2023-05-07T07:54:50;3.20;;;2.53;;
56806;SDS011;42687;42.524;12.052;2023-05-07T07:57:16;1.25;;;1.13;;
56806;SDS011;42687;42.524;12.052;2023-05-07T07:59:41;2.92;;;2.00;;
56806;SDS011;42687;42.524;12.052;2023-05-07T08:02:08;2.92;;;2.05;;
56806;SDS011;42687;42.524;12.052;2023-05-07T08:04:34;4.18;;;2.40;;
56806;SDS011;42687;42.524;12.052;2023-05-07T08:07:00;2.03;;;1.55;;
56806;SDS011;42687;42.524;12.052;2023-05-07T08:09:26;1.90;;;1.27;;
56806;SDS011;42687;42.524;12.052;2023-05-07T08:11:52;12.48;;;2.63;;
56806;SDS011;42687;42.524;12.052;2023-05-07T08:14:18;3.38;;;2.33;;
56806;SDS011;42687;42.524;12.052;2023-05-07T08:16:44;1.98;;;1.73;;
56806;SDS011;42687;42.524;12.052;2023-05-07T08:19:09;6.90;;;2.08;;
56806;SDS011;42687;42.524;12.052;2023-05-07T08:21:38;2.92;;;1.50;;
56806;SDS011;42687;42.524;12.052;2023-05-07T08:24:04;5.13;;;3.17;;
56806;SDS011;42687;42.524;12.052;2023-05-07T08:26:30;5.25;;;2.70;;
56806;SDS011;42687;42.524;12.052;2023-05-07T08:28:56;4.65;;;2.30;;
56806;SDS011;42687;42.524;12.052;2023-05-07T08:31:21;2.42;;;1.70;;
56806;SDS011;42687;42.524;12.052;2023-05-07T08:33:47;4.35;;;1.88;;
56806;SDS011;42687;42.524;12.052;2023-05-07T08:36:13;5.47;;;3.25;;
56806;SDS011;42687;42.524;12.052;2023-05-07T08:38:39;4.70;;;2.75;;
56806;SDS011;42687;42.524;12.052;2023-05-07T08:41:09;3.38;;;1.88;;
56806;SDS011;42687;42.524;12.052;2023-05-07T08:43:36;16.65;;;4.88;;
56806;SDS011;42687;42.524;12.052;2023-05-07T08:46:06;3.67;;;3.15;;
56806;SDS011;42687;42.524;12.052;2023-05-07T08:48:36;2.75;;;1.77;;
56806;SDS011;42687;42.524;12.052;2023-05-07T08:51:02;2.45;;;2.22;;
56806;SDS011;42687;42.524;12.052;2023-05-07T08:53:28;4.10;;;2.65;;
56806;SDS011;42687;42.524;12.052;2023-05-07T08:55:54;2.30;;;1.90;;
56806;SDS011;42687;42.524;12.052;2023-05-07T08:58:20;3.42;;;2.20;;
56806;SDS011;42687;42.524;12.052;2023-05-07T09:00:46;3.75;;;2.13;;
56806;SDS011;42687;42.524;12.052;2023-05-07T09:03:13;3.45;;;2.30;;
56806;SDS011;42687;42.524;12.052;2023-05-07T09:05:39;3.08;;;1.83;;
56806;SDS011;42687;42.524;12.052;2023-05-07T09:08:06;3.85;;;2.67;;
56806;SDS011;42687;42.524;12.052;2023-05-07T09:10:33;4.78;;;3.88;;
56806;SDS011;42687;42.524;12.052;2023-05-07T09:12:59;3.65;;;2.55;;
56806;SDS011;42687;42.524;12.052;2023-05-07T09:15:26;1.42;;;1.30;;
56806;SDS011;42687;42.524;12.052;2023-05-07T09:17:52;2.10;;;1.10;;
56806;SDS011;42687;42.524;12.052;2023-05-07T09:20:17;4.88;;;3.08;;
56806;SDS011;42687;42.524;12.052;2023-05-07T09:22:43;4.75;;;3.60;;
56806;SDS011;42687;42.524;12.052;2023-05-07T09:25:09;2.28;;;2.08;;
56806;SDS011;42687;42.524;12.052;2023-05-07T09:27:35;3.40;;;2.40;;
56806;SDS011;42687;42.524;12.052;2023-05-07T09:30:07;4.22;;;2.63;;
56806;SDS011;42687;42.524;12.052;2023-05-07T09:32:36;4.88;;;2.40;;
56806;SDS011;42687;42.524;12.052;2023-05-07T09:35:05;4.63;;;3.08;;
56806;SDS011;42687;42.524;12.052;2023-05-07T09:37:40;5.18;;;1.60;;
56806;SDS011;42687;42.524;12.052;2023-05-07T09:40:06;5.88;;;2.45;;
56806;SDS011;42687;42.524;12.052;2023-05-07T09:42:33;3.00;;;2.08;;
56806;SDS011;42687;42.524;12.052;2023-05-07T09:44:59;2.63;;;2.08;;
56806;SDS011;42687;42.524;12.052;2023-05-07T09:47:25;4.25;;;2.47;;
56806;SDS011;42687;42.524;12.052;2023-05-07T09:49:57;1.90;;;1.40;;
56806;SDS011;42687;42.524;12.052;2023-05-07T09:52:27;4.82;;;1.63;;
56806;SDS011;42687;42.524;12.052;2023-05-07T09:54:58;1.65;;;1.55;;
56806;SDS011;42687;42.524;12.052;2023-05-07T09:57:25;3.08;;;1.88;;
56806;SDS011;42687;42.524;12.052;2023-05-07T09:59:52;6.65;;;2.95;;
56806;SDS011;42687;42.524;12.052;2023-05-07T10:02:20;3.17;;;2.20;;
56806;SDS011;42687;42.524;12.052;2023-05-07T10:04:48;4.60;;;2.53;;
56806;SDS011;42687;42.524;12.052;2023-05-07T10:07:14;2.80;;;2.00;;
56806;SDS011;42687;42.524;12.052;2023-05-07T10:09:42;3.60;;;2.05;;
56806;SDS011;42687;42.524;12.052;2023-05-07T10:12:09;6.18;;;2.42;;
56806;SDS011;42687;42.524;12.052;2023-05-07T10:14:35;3.55;;;2.17;;
56806;SDS011;42687;42.524;12.052;2023-05-07T10:17:02;3.70;;;1.98;;
56806;SDS011;42687;42.524;12.052;2023-05-07T10:19:29;2.97;;;1.85;;
56806;SDS011;42687;42.524;12.052;2023-05-07T10:21:58;2.22;;;1.52;;
56806;SDS011;42687;42.524;12.052;2023-05-07T10:24:37;2.58;;;2.13;;
56806;SDS011;42687;42.524;12.052;2023-05-07T10:27:08;3.70;;;2.10;;
56806;SDS011;42687;42.524;12.052;2023-05-07T10:35:14;3.85;;;2.42;;
56806;SDS011;42687;42.524;12.052;2023-05-07T10:37:43;4.20;;;1.95;;
56806;SDS011;42687;42.524;12.052;2023-05-07T10:40:10;4.82;;;3.80;;
56806;SDS011;42687;42.524;12.052;2023-05-07T10:42:37;5.05;;;3.33;;
56806;SDS011;42687;42.524;12.052;2023-05-07T10:45:14;4.15;;;2.83;;
56806;SDS011;42687;42.524;12.052;2023-05-07T10:50:33;5.97;;;3.53;;
56806;SDS011;42687;42.524;12.052;2023-05-07T10:53:32;5.47;;;2.50;;
56806;SDS011;42687;42.524;12.052;2023-05-07T10:58:43;4.68;;;2.00;;
56806;SDS011;42687;42.524;12.052;2023-05-07T11:01:09;3.58;;;2.53;;
56806;SDS011;42687;42.524;12.052;2023-05-07T11:03:57;2.53;;;2.28;;
56806;SDS011;42687;42.524;12.052;2023-05-07T11:06:39;3.97;;;2.30;;
56806;SDS011;42687;42.524;12.052;2023-05-07T11:09:05;7.47;;;2.50;;
56806;SDS011;42687;42.524;12.052;2023-05-07T11:11:46;4.38;;;2.40;;
56806;SDS011;42687;42.524;12.052;2023-05-07T11:17:06;2.70;;;1.70;;
56806;SDS011;42687;42.524;12.052;2023-05-07T11:19:54;3.65;;;2.15;;
56806;SDS011;42687;42.524;12.052;2023-05-07T11:24:58;2.90;;;2.00;;
56806;SDS011;42687;42.524;12.052;2023-05-07T11:27:27;3.08;;;2.55;;
56806;SDS011;42687;42.524;12.052;2023-05-07T11:29:54;2.47;;;2.25;;
56806;SDS011;42687;42.524;12.052;2023-05-07T11:32:23;3.72;;;1.95;;
56806;SDS011;42687;42.524;12.052;2023-05-07T11:34:52;4.32;;;2.25;;
56806;SDS011;42687;42.524;12.052;2023-05-07T11:37:19;3.28;;;2.20;;
56806;SDS011;42687;42.524;12.052;2023-05-07T11:39:45;3.20;;;2.00;;
56806;SDS011;42687;42.524;12.052;2023-05-07T11:42:30;3.67;;;2.60;;
56806;SDS011;42687;42.524;12.052;2023-05-07T11:44:57;3.35;;;2.50;;
56806;SDS011;42687;42.524;12.052;2023-05-07T11:47:24;3.83;;;2.40;;
56806;SDS011;42687;42.524;12.052;2023-05-07T11:49:53;2.00;;;1.80;;
56806;SDS011;42687;42.524;12.052;2023-05-07T11:52:21;3.55;;;2.33;;
56806;SDS011;42687;42.524;12.052;2023-05-07T11:57:18;2.15;;;1.95;;
56806;SDS011;42687;42.524;12.052;2023-05-07T11:59:45;3.03;;;2.17;;
56806;SDS011;42687;42.524;12.052;2023-05-07T12:02:17;5.00;;;3.25;;
56806;SDS011;42687;42.524;12.052;2023-05-07T12:04:43;2.75;;;2.20;;
56806;SDS011;42687;42.524;12.052;2023-05-07T12:07:13;4.32;;;2.70;;
56806;SDS011;42687;42.524;12.052;2023-05-07T12:09:42;3.22;;;2.63;;
56806;SDS011;42687;42.524;12.052;2023-05-07T12:12:09;4.63;;;2.63;;
56806;SDS011;42687;42.524;12.052;2023-05-07T12:14:41;3.15;;;2.13;;
56806;SDS011;42687;42.524;12.052;2023-05-07T12:17:09;4.03;;;2.05;;
56806;SDS011;42687;42.524;12.052;2023-05-07T12:19:36;3.55;;;2.10;;
56806;SDS011;42687;42.524;12.052;2023-05-07T12:22:04;4.45;;;2.10;;
56806;SDS011;42687;42.524;12.052;2023-05-07T12:24:48;3.85;;;1.90;;
56806;SDS011;42687;42.524;12.052;2023-05-07T12:27:15;3.65;;;2.05;;
56806;SDS011;42687;42.524;12.052;2023-05-07T12:29:46;1.77;;;1.60;;
56806;SDS011;42687;42.524;12.052;2023-05-07T12:32:13;2.72;;;1.92;;
56806;SDS011;42687;42.524;12.052;2023-05-07T12:34:43;6.97;;;2.83;;
56806;SDS011;42687;42.524;12.052;2023-05-07T12:37:10;4.57;;;2.70;;
56806;SDS011;42687;42.524;12.052;2023-05-07T12:39:36;3.25;;;2.13;;
56806;SDS011;42687;42.524;12.052;2023-05-07T12:42:01;2.72;;;2.22;;
56806;SDS011;42687;42.524;12.052;2023-05-07T12:44:34;5.70;;;2.53;;
56806;SDS011;42687;42.524;12.052;2023-05-07T12:47:03;3.55;;;2.55;;
56806;SDS011;42687;42.524;12.052;2023-05-07T12:49:28;4.07;;;2.50;;
56806;SDS011;42687;42.524;12.052;2023-05-07T12:51:54;2.63;;;1.92;;
56806;SDS011;42687;42.524;12.052;2023-05-07T12:54:34;3.72;;;2.50;;
56806;SDS011;42687;42.524;12.052;2023-05-07T12:57:06;5.88;;;4.57;;
56806;SDS011;42687;42.524;12.052;2023-05-07T12:59:37;6.28;;;4.10;;
56806;SDS011;42687;42.524;12.052;2023-05-07T13:02:05;5.30;;;2.63;;
56806;SDS011;42687;42.524;12.052;2023-05-07T13:04:31;3.25;;;2.45;;
56806;SDS011;42687;42.524;12.052;2023-05-07T13:06:58;2.63;;;1.75;;
56806;SDS011;42687;42.524;12.052;2023-05-07T13:09:24;8.38;;;2.20;;
56806;SDS011;42687;42.524;12.052;2023-05-07T13:11:49;3.90;;;2.53;;
56806;SDS011;42687;42.524;12.052;2023-05-07T13:14:15;5.40;;;3.38;;
56806;SDS011;42687;42.524;12.052;2023-05-07T13:16:41;6.40;;;2.92;;
56806;SDS011;42687;42.524;12.052;2023-05-07T13:19:06;4.25;;;3.58;;
56806;SDS011;42687;42.524;12.052;2023-05-07T13:21:32;2.90;;;2.70;;
56806;SDS011;42687;42.524;12.052;2023-05-07T13:23:58;2.25;;;2.05;;
56806;SDS011;42687;42.524;12.052;2023-05-07T13:26:24;8.35;;;2.72;;
56806;SDS011;42687;42.524;12.052;2023-05-07T13:28:50;3.55;;;2.58;;
56806;SDS011;42687;42.524;12.052;2023-05-07T13:31:17;3.00;;;2.15;;
56806;SDS011;42687;42.524;12.052;2023-05-07T13:33:43;2.15;;;1.83;;
56806;SDS011;42687;42.524;12.052;2023-05-07T13:36:09;3.20;;;2.17;;
56806;SDS011;42687;42.524;12.052;2023-05-07T13:38:34;3.15;;;2.70;;
56806;SDS011;42687;42.524;12.052;2023-05-07T13:41:00;2.03;;;1.63;;
56806;SDS011;42687;42.524;12.052;2023-05-07T13:43:27;3.35;;;2.13;;
56806;SDS011;42687;42.524;12.052;2023-05-07T13:45:52;3.90;;;2.50;;
56806;SDS011;42687;42.524;12.052;2023-05-07T13:48:18;5.25;;;3.08;;
56806;SDS011;42687;42.524;12.052;2023-05-07T13:50:44;5.53;;;4.45;;
56806;SDS011;42687;42.524;12.052;2023-05-07T13:53:09;3.83;;;2.00;;
56806;SDS011;42687;42.524;12.052;2023-05-07T13:55:35;2.92;;;1.70;;
56806;SDS011;42687;42.524;12.052;2023-05-07T13:58:01;3.00;;;2.08;;
56806;SDS011;42687;42.524;12.052;2023-05-07T14:00:28;3.28;;;2.03;;
56806;SDS011;42687;42.524;12.052;2023-05-07T14:02:54;2.67;;;2.08;;
56806;SDS011;42687;42.524;12.052;2023-05-07T14:05:21;8.85;;;7.03;;
56806;SDS011;42687;42.524;12.052;2023-05-07T14:07:53;7.65;;;5.05;;
56806;SDS011;42687;42.524;12.052;2023-05-07T14:10:20;2.70;;;2.13;;
56806;SDS011;42687;42.524;12.052;2023-05-07T14:12:46;2.35;;;2.05;;
56806;SDS011;42687;42.524;12.052;2023-05-07T14:15:12;2.60;;;1.63;;
56806;SDS011;42687;42.524;12.052;2023-05-07T14:17:38;3.90;;;2.00;;
56806;SDS011;42687;42.524;12.052;2023-05-07T14:20:04;3.08;;;1.98;;
56806;SDS011;42687;42.524;12.052;2023-05-07T14:22:32;5.75;;;2.47;;
56806;SDS011;42687;42.524;12.052;2023-05-07T14:24:58;3.75;;;2.50;;
56806;SDS011;42687;42.524;12.052;2023-05-07T14:27:23;8.27;;;6.03;;
56806;SDS011;42687;42.524;12.052;2023-05-07T14:29:49;3.08;;;2.45;;
56806;SDS011;42687;42.524;12.052;2023-05-07T14:32:17;3.30;;;1.95;;
56806;SDS011;42687;42.524;12.052;2023-05-07T14:34:43;4.13;;;2.85;;
56806;SDS011;42687;42.524;12.052;2023-05-07T14:37:10;3.67;;;2.67;;
56806;SDS011;42687;42.524;12.052;2023-05-07T14:39:36;4.80;;;2.58;;
56806;SDS011;42687;42.524;12.052;2023-05-07T14:42:02;2.95;;;2.10;;
56806;SDS011;42687;42.524;12.052;2023-05-07T14:44:28;2.80;;;1.85;;
56806;SDS011;42687;42.524;12.052;2023-05-07T14:46:54;4.13;;;2.05;;
56806;SDS011;42687;42.524;12.052;2023-05-07T14:49:20;19.60;;;2.85;;